Huvudsida
METAR-TAF:

METAR-TAF

Flygplatser :

Turin-Caselles flygplats

Turin, Italien

latitud: 45-13N, longitud: 007-39E, höjd: 301 m

Aktuellt väderrapport

Denna rapport gjordes för 38 minuter sedan, klockan 21:20 UTC
Vind 1 kt varierande vindriktning
Temperatur 3°C
Fuktighet 81%
Tryck 1020 hPa
Sikt: 5000 m
fuktdis

METAR: LIMF 262120Z VRB01KT 5000 BR NSC 03/00 Q1020

Tid: 22:58 (21:58 UTC)

Väderprognos

Denna rapport gjordes för 4 timmar och 58 minuter sedan, klockan 17:00 UTC
Prognos gäller från 26 kl. 18 UTC till 27 kl. 18 UTC
Vind 5 kt varierande vindriktning
Sikt: 8000 m
Spridda moln på en höjd av 9000 ft
Temporärt
från 27 kl. 00 UTC till 27 kl. 08 UTC
Sikt: 1500 m
fuktdis

TAF: LIMF 261700Z 2618/2718 VRB05KT 8000 SCT090 TEMPO 2700/2708 1500 BR

Aktuella väderrapporter och prognoser från 4000 flygplatser (METAR- och TAF-rapporter).

De tillgängliga stationerna syns som gula och röda prickar på kartan.

För musen över prickarna för att se namnen på stationerna.

Klicka sedan för att få väderrapporter och prognoser.

För att ändra kartan: Klicka på de gröna knapparna med ett svart kors på för att zooma in; den gröna knappen med ett streck på för att zooma ut; eller på de gröna pilarna för angränsande kartor.


METAR-TAF: